Time;durP1;ratioP1;P1;durP2;ratioP2;P2;SDS_P1;SDS_P2;PMS_P1;PMS_P2;Temp;Humidity;BMP_temperature;BMP_pressure;BME280_temperature;BME280_humidity;BME280_pressure;Samples;Min_cycle;Max_cycle;Signal;HPM_P1;HPM_P2
2022/01/17 00:01:57;;;;;;;4.78;2.97;;;;;;;-3.28;79.91;100837.00;10135940;29;20045;-69
2022/01/17 00:06:58;;;;;;;6.50;3.70;;;;;;;-3.40;79.62;100795.97;10136321;29;20048;-70
2022/01/17 00:11:59;;;;;;;7.72;3.10;;;;;;;-3.65;79.59;100746.84;10134165;29;20048;-71
2022/01/17 00:17:22;;;;;;;7.53;3.78;;;;;;;-2.88;79.77;100858.59;10135857;29;20052;-69
2022/01/17 00:22:23;;;;;;;6.50;2.88;;;;;;;-2.76;80.01;100871.03;10134937;29;20131;-71
2022/01/17 00:27:24;;;;;;;5.68;3.15;;;;;;;-2.93;79.76;100847.59;10134965;29;20135;-69
2022/01/17 00:32:25;;;;;;;5.60;3.13;;;;;;;-3.32;80.34;100791.28;10135350;29;20047;-70
2022/01/17 00:37:26;;;;;;;9.10;3.63;;;;;;;-2.76;80.68;100871.03;10133993;29;20044;-70
2022/01/17 00:42:27;;;;;;;7.22;3.15;;;;;;;-2.76;80.48;100889.22;10134632;29;20049;-71
2022/01/17 00:47:27;;;;;;;6.93;3.35;;;;;;;-2.91;80.31;100858.72;10133563;29;20064;-70
2022/01/17 00:52:28;;;;;;;7.40;3.03;;;;;;;-2.83;80.18;100859.25;10133658;29;20140;-69
2022/01/17 00:57:29;;;;;;;4.05;2.22;;;;;;;-3.56;79.51;100722.22;10133445;29;20044;-72
2022/01/17 01:02:30;;;;;;;6.88;3.08;;;;;;;-2.61;79.96;100850.44;10133504;29;20516;-70
2022/01/17 01:07:31;;;;;;;6.88;3.10;;;;;;;-2.49;80.54;100868.06;10133661;29;20047;-69
2022/01/17 01:12:33;;;;;;;5.40;2.92;;;;;;;-2.36;81.14;100866.59;10134320;29;20053;-69
2022/01/17 01:17:46;;;;;;;5.13;2.75;;;;;;;-2.66;80.87;100814.25;10134259;29;20524;-69
2022/01/17 01:28:08;;;;;;;4.97;2.75;;;;;;;-2.11;80.81;100850.63;10141584;29;20081;-69
2022/01/17 01:33:09;;;;;;;6.30;2.97;;;;;;;-2.41;80.81;100782.72;10141657;29;20525;-69
2022/01/17 01:38:10;;;;;;;6.40;2.63;;;;;;;-2.38;81.42;100798.16;10142112;29;20040;-69
2022/01/17 01:43:11;;;;;;;8.05;3.35;;;;;;;-2.45;81.76;100795.91;10141599;29;20040;-69
2022/01/17 01:48:12;;;;;;;4.97;2.72;;;;;;;-2.72;81.60;100772.06;10140902;29;20555;-69
2022/01/17 01:53:13;;;;;;;7.03;2.80;;;;;;;-2.24;81.56;100865.19;10140259;29;20051;-69
2022/01/17 01:58:15;;;;;;;4.28;2.70;;;;;;;-2.31;82.14;100854.19;10140317;29;20041;-70
2022/01/17 02:03:16;;;;;;;6.88;2.30;;;;;;;-3.61;82.10;100657.53;10140514;29;20032;-69
2022/01/17 02:08:17;;;;;;;6.03;2.47;;;;;;;-2.59;82.37;100835.63;10140296;29;20438;-71
2022/01/17 02:13:17;;;;;;;4.40;2.38;;;;;;;-3.54;82.24;100699.66;10140123;29;20518;-69
2022/01/17 02:18:28;;;;;;;4.07;2.10;;;;;;;-2.63;82.26;100868.72;10139897;29;20056;-69
2022/01/17 02:23:29;;;;;;;5.93;2.38;;;;;;;-2.84;81.94;100854.09;10139977;29;20071;-73
2022/01/17 02:28:33;;;;;;;5.80;2.47;;;;;;;-4.09;81.82;100697.75;10139530;29;20135;-68
2022/01/17 02:33:35;;;;;;;4.05;2.00;;;;;;;-3.25;81.82;100862.84;10137490;29;20048;-71
2022/01/17 02:38:38;;;;;;;8.02;2.50;;;;;;;-3.22;82.20;100886.09;10139091;29;20421;-71
2022/01/17 02:43:40;;;;;;;6.18;2.25;;;;;;;-3.33;81.85;100879.66;10138338;29;20461;-71
2022/01/17 02:48:41;;;;;;;11.02;3.63;;;;;;;-3.54;82.42;100868.44;10139016;29;20065;-71
2022/01/17 02:53:42;;;;;;;4.65;1.83;;;;;;;-4.42;82.51;100738.91;10137905;29;20141;-68
2022/01/17 02:58:44;;;;;;;6.07;2.15;;;;;;;-3.74;82.78;100861.50;10153160;29;20048;-71
2022/01/17 03:03:45;;;;;;;6.43;1.92;;;;;;;-3.53;83.63;100898.69;10176631;29;20058;-71
2022/01/17 03:08:46;;;;;;;4.63;1.63;;;;;;;-3.56;83.74;100873.72;10149866;29;20047;-70
2022/01/17 03:13:48;;;;;;;6.22;1.70;;;;;;;-3.47;83.17;100888.91;10138187;29;20092;-69
2022/01/17 03:18:51;;;;;;;4.00;1.42;;;;;;;-3.68;82.92;100884.59;10137389;29;20068;-69
2022/01/17 03:23:53;;;;;;;2.92;1.35;;;;;;;-4.39;82.84;100783.72;10137301;29;20048;-71
2022/01/17 03:28:53;;;;;;;3.58;1.60;;;;;;;-4.55;83.27;100774.84;10136891;29;20044;-69
2022/01/17 03:33:54;;;;;;;5.20;3.00;;;;;;;-4.34;83.17;100812.03;10136075;29;20496;-71
2022/01/17 03:38:56;;;;;;;2.15;1.13;;;;;;;-4.42;82.61;100832.28;10136532;29;20132;-69
2022/01/17 03:43:56;;;;;;;3.05;1.50;;;;;;;-5.78;82.37;100636.28;10136256;29;20048;-71
2022/01/17 03:48:57;;;;;;;4.03;1.70;;;;;;;-4.47;82.85;100868.75;10136839;29;20462;-69
2022/01/17 03:53:58;;;;;;;9.60;2.15;;;;;;;-4.30;82.51;100926.91;10135828;29;20131;-72
2022/01/17 03:58:59;;;;;;;4.88;1.85;;;;;;;-4.56;82.37;100912.34;10173405;29;20051;-71
2022/01/17 04:04:01;;;;;;;6.70;1.67;;;;;;;-4.29;82.83;100983.91;10170468;29;20409;-71
2022/01/17 04:09:02;;;;;;;3.28;1.20;;;;;;;-4.60;83.04;100925.41;10159064;29;20056;-71
2022/01/17 04:14:06;;;;;;;5.45;1.60;;;;;;;-5.13;83.06;100839.28;10172576;29;20056;-72
2022/01/17 04:19:09;;;;;;;5.18;1.35;;;;;;;-4.41;83.05;100979.19;10173836;29;20059;-71
2022/01/17 04:24:10;;;;;;;5.63;1.50;;;;;;;-4.45;82.72;100965.50;10173447;29;20421;-70
2022/01/17 04:29:11;;;;;;;8.32;1.27;;;;;;;-4.32;82.86;100972.81;10173448;29;20047;-71
2022/01/17 04:34:13;;;;;;;4.68;1.70;;;;;;;-4.55;83.01;100952.91;10173352;29;20420;-69
2022/01/17 04:39:16;;;;;;;5.68;1.33;;;;;;;-4.51;82.16;100970.91;10173514;29;20044;-71
2022/01/17 04:49:36;;;;;;;6.93;1.52;;;;;;;-4.75;81.65;100956.25;10173921;29;20115;-68
2022/01/17 04:54:40;;;;;;;4.47;1.55;;;;;;;-5.36;82.08;100897.06;10173611;29;20092;-68
2022/01/17 04:59:41;;;;;;;5.90;1.10;;;;;;;-5.06;82.50;100963.34;10171752;29;20048;-71
2022/01/17 05:04:45;;;;;;;4.22;1.17;;;;;;;-4.51;83.22;101006.38;10173113;29;20051;-71
2022/01/17 05:09:46;;;;;;;4.75;1.20;;;;;;;-4.52;82.90;100963.16;10172033;29;20055;-72
2022/01/17 05:14:50;;;;;;;3.40;1.15;;;;;;;-5.49;82.28;100715.44;10173501;29;20091;-68
2022/01/17 05:19:56;;;;;;;2.83;1.10;;;;;;;-3.96;81.29;100885.75;10172561;29;20147;-71
2022/01/17 05:24:59;;;;;;;2.10;0.90;;;;;;;-2.85;80.22;101011.84;10170981;29;20508;-70
2022/01/17 05:30:00;;;;;;;2.20;0.98;;;;;;;-2.46;80.02;101016.22;10171276;29;20039;-70
2022/01/17 05:35:01;;;;;;;2.60;1.33;;;;;;;-2.28;78.98;101000.69;10173589;29;20072;-70
2022/01/17 05:40:04;;;;;;;3.47;1.17;;;;;;;-2.20;78.86;100967.38;10172267;29;20063;-70
2022/01/17 05:45:08;;;;;;;1.93;1.07;;;;;;;-1.83;78.72;101008.97;10172104;29;20385;-70
2022/01/17 05:50:09;;;;;;;4.38;1.13;;;;;;;-1.68;78.38;101022.19;10172668;29;20758;-70
2022/01/17 05:55:13;;;;;;;2.78;1.35;;;;;;;-1.56;78.28;101021.59;10171123;29;20044;-71
2022/01/17 06:00:15;;;;;;;3.50;1.30;;;;;;;-2.45;77.29;100887.84;10170578;29;20051;-71
2022/01/17 06:05:16;;;;;;;3.15;0.98;;;;;;;-1.63;76.91;101009.78;10171974;29;20043;-71
2022/01/17 06:10:17;;;;;;;2.53;1.05;;;;;;;-1.35;76.79;101018.88;10177355;29;20040;-72
2022/01/17 06:15:18;;;;;;;2.45;1.08;;;;;;;-1.49;75.58;100965.69;10179051;29;20044;-72
2022/01/17 06:20:19;;;;;;;2.83;1.02;;;;;;;-1.17;74.72;100991.91;10179009;29;20035;-74
2022/01/17 06:25:20;;;;;;;2.00;0.90;;;;;;;-0.86;73.91;101021.66;10178809;29;20040;-72
2022/01/17 06:30:21;;;;;;;4.38;1.20;;;;;;;-1.04;73.76;100963.47;10177298;29;20036;-72
2022/01/17 06:35:22;;;;;;;2.78;0.82;;;;;;;-0.75;73.26;100951.50;10178461;29;20040;-72
2022/01/17 06:40:23;;;;;;;2.30;0.93;;;;;;;-1.01;72.28;100893.72;10178221;29;20055;-72
2022/01/17 06:45:24;;;;;;;2.78;0.95;;;;;;;-0.42;71.81;100953.22;10177776;29;20103;-72
2022/01/17 06:50:25;;;;;;;4.28;0.70;;;;;;;-1.18;71.02;100819.00;10177688;29;20076;-72
2022/01/17 06:55:26;;;;;;;4.75;0.82;;;;;;;-1.04;70.22;100880.84;10176052;29;20044;-73
2022/01/17 07:00:27;;;;;;;2.33;0.93;;;;;;;-0.58;69.59;100956.66;10177296;29;20044;-72
2022/01/17 07:05:28;;;;;;;1.88;0.73;;;;;;;0.17;69.29;101056.22;10177328;29;20052;-72
2022/01/17 07:10:28;;;;;;;3.53;0.70;;;;;;;-0.22;68.96;100954.78;10176767;29;20265;-72
2022/01/17 07:15:29;;;;;;;1.75;0.77;;;;;;;0.22;67.97;100973.22;10176262;29;20122;-72
2022/01/17 07:20:30;;;;;;;3.15;1.13;;;;;;;0.00;67.45;100963.13;10175623;29;20056;-72
2022/01/17 07:25:31;;;;;;;3.10;0.80;;;;;;;0.90;66.46;101134.97;10175368;29;20091;-72
2022/01/17 07:30:32;;;;;;;2.78;1.05;;;;;;;0.69;66.70;101048.09;10176129;29;20044;-72
2022/01/17 07:35:35;;;;;;;2.45;1.08;;;;;;;0.13;65.46;100875.28;10174834;29;20039;-71
2022/01/17 07:40:36;;;;;;;2.03;0.82;;;;;;;1.12;65.54;101030.75;10174696;29;20051;-71
2022/01/17 07:45:44;;;;;;;2.13;0.85;;;;;;;1.24;64.69;100902.72;10175444;29;20044;-72
2022/01/17 07:50:46;;;;;;;1.55;0.60;;;;;;;1.13;63.81;100866.72;10174546;29;20036;-71
2022/01/17 07:55:47;;;;;;;1.90;0.82;;;;;;;1.50;64.49;100919.44;10173977;29;20055;-72
2022/01/17 08:00:48;;;;;;;1.77;0.80;;;;;;;1.89;64.31;100946.69;10174564;29;20497;-72
2022/01/17 08:05:49;;;;;;;2.58;0.63;;;;;;;0.15;63.67;100651.38;10174649;29;20040;-73
2022/01/17 08:10:50;;;;;;;4.60;0.95;;;;;;;1.67;63.42;100885.16;10174171;29;20458;-74
2022/01/17 08:15:51;;;;;;;1.75;0.60;;;;;;;0.79;62.69;100717.13;10174375;29;20048;-72
2022/01/17 08:20:52;;;;;;;3.55;0.68;;;;;;;1.24;62.82;100787.56;10175036;29;20405;-72
2022/01/17 08:25:53;;;;;;;2.65;0.95;;;;;;;2.40;62.41;100978.34;10172782;29;20048;-73
2022/01/17 08:30:53;;;;;;;2.10;0.90;;;;;;;2.11;61.95;100899.81;10173066;29;20052;-73
2022/01/17 08:35:54;;;;;;;2.25;0.73;;;;;;;2.83;61.66;100967.63;10174089;29;20477;-72
2022/01/17 08:40:57;;;;;;;2.95;0.68;;;;;;;2.68;61.18;100940.63;10173816;29;20048;-71
2022/01/17 08:45:58;;;;;;;1.73;0.80;;;;;;;2.32;60.83;100832.00;10172088;29;20420;-72
2022/01/17 08:50:59;;;;;;;4.40;1.00;;;;;;;1.68;60.92;100726.25;10172198;29;20135;-72
2022/01/17 08:56:00;;;;;;;2.63;0.70;;;;;;;0.31;60.22;100441.38;10173118;29;20151;-72
2022/01/17 09:01:00;;;;;;;2.42;0.90;;;;;;;3.22;60.81;100887.09;10172840;29;20420;-72
2022/01/17 09:06:01;;;;;;;2.55;1.10;;;;;;;2.46;59.79;100776.84;10171625;29;20044;-72
2022/01/17 09:11:02;;;;;;;1.20;0.50;;;;;;;1.96;59.94;100683.31;10173178;29;20083;-72
2022/01/17 09:16:03;;;;;;;1.80;0.80;;;;;;;2.19;59.39;100714.06;10171694;29;20084;-72
2022/01/17 09:21:04;;;;;;;3.22;0.90;;;;;;;3.05;59.93;100834.00;10172624;29;20048;-72
2022/01/17 09:26:06;;;;;;;1.40;0.70;;;;;;;3.18;58.24;100868.94;10171892;29;20060;-72
2022/01/17 09:31:06;;;;;;;1.65;0.55;;;;;;;3.52;57.80;100876.22;10171202;29;20416;-72
2022/01/17 09:36:07;;;;;;;3.15;0.65;;;;;;;3.24;57.76;100819.56;10170592;29;20040;-73
2022/01/17 09:41:09;;;;;;;3.42;1.50;;;;;;;2.71;57.16;100707.78;10171863;29;20476;-72
2022/01/17 09:46:10;;;;;;;2.25;0.82;;;;;;;3.04;57.39;100753.56;10179717;29;20063;-71
2022/01/17 09:51:38;;;;;;;1.75;0.80;;;;;;;2.03;57.56;100614.69;10179339;29;20134;-72
2022/01/17 09:56:39;;;;;;;2.55;0.98;;;;;;;3.62;56.68;100829.94;10179517;29;20048;-71
2022/01/17 10:01:41;;;;;;;3.67;0.80;;;;;;;3.71;56.43;100834.53;10179467;29;20091;-72
2022/01/17 10:06:50;;;;;;;1.40;0.50;;;;;;;3.12;56.44;100698.75;10178734;29;20167;-71
2022/01/17 10:12:09;;;;;;;2.13;0.60;;;;;;;2.97;56.59;100650.00;10177471;29;20456;-74
2022/01/17 10:17:16;;;;;;;1.65;0.80;;;;;;;3.54;55.47;100777.13;10177714;29;20040;-73
2022/01/17 10:22:29;;;;;;;1.95;0.90;;;;;;;3.65;54.99;100803.47;10177809;29;20096;-71
2022/01/17 10:27:55;;;;;;;2.22;0.88;;;;;;;3.71;55.96;100791.66;10178917;29;20067;-72
2022/01/17 10:38:16;;;;;;;3.08;0.70;;;;;;;3.87;55.91;100811.44;10178796;29;20040;-74
2022/01/17 10:43:34;;;;;;;2.47;1.08;;;;;;;2.90;55.88;100675.84;10177129;29;20409;-71
2022/01/17 10:48:46;;;;;;;2.20;1.00;;;;;;;3.36;56.63;100709.25;10176855;29;20060;-72
2022/01/17 10:53:50;;;;;;;1.50;0.70;;;;;;;3.77;55.00;100762.28;10176771;29;20052;-72
2022/01/17 10:59:02;;;;;;;2.00;0.87;;;;;;;3.85;55.75;100784.41;10176107;29;20064;-72
2022/01/17 11:04:09;;;;;;;1.38;0.68;;;;;;;3.27;55.76;100709.91;10177294;29;20052;-71
2022/01/17 11:09:10;;;;;;;3.08;0.82;;;;;;;3.56;55.92;100773.44;10177690;29;20044;-72
2022/01/17 11:14:11;;;;;;;4.07;0.80;;;;;;;2.46;55.67;100600.34;10176679;29;20048;-71
2022/01/17 11:20:03;;;;;;;2.10;0.70;;;;;;;2.74;56.47;100662.97;10177336;29;20084;-73
2022/01/17 11:24:41;;;;;;;1.38;0.63;;;;;;;3.18;56.34;100734.22;10176387;29;20052;-71
2022/01/17 11:29:43;;;;;;;1.67;0.65;;;;;;;1.20;55.46;100430.19;10177645;29;20059;-71
2022/01/17 11:34:44;;;;;;;3.20;0.73;;;;;;;1.96;55.79;100547.91;10175520;29;20497;-71
2022/01/17 11:39:47;;;;;;;2.20;0.60;;;;;;;1.94;55.05;100554.19;10175204;29;20047;-71
2022/01/17 11:44:48;;;;;;;4.88;0.80;;;;;;;2.48;55.61;100658.72;10173939;29;20071;-71
2022/01/17 11:49:56;;;;;;;1.75;0.55;;;;;;;2.71;54.66;100683.34;10173940;29;20086;-72
2022/01/17 11:54:57;;;;;;;1.10;0.60;;;;;;;2.05;54.73;100599.69;10174369;29;20099;-71
2022/01/17 12:00:02;;;;;;;7.88;0.80;;;;;;;2.83;55.33;100710.50;10175434;29;20088;-71
2022/01/17 12:05:12;;;;;;;9.32;0.70;;;;;;;3.11;55.07;100748.72;10173200;29;20066;-72
2022/01/17 12:10:16;;;;;;;3.17;0.70;;;;;;;2.43;55.58;100653.00;10159397;29;20084;-72
2022/01/17 12:15:19;;;;;;;2.22;0.68;;;;;;;2.07;54.76;100581.25;10146826;29;20083;-72
2022/01/17 12:20:24;;;;;;;2.00;0.80;;;;;;;2.90;55.15;100758.94;10166527;29;20083;-74
2022/01/17 12:25:26;;;;;;;4.75;0.63;;;;;;;2.92;55.47;100754.44;10174722;29;20050;-73
2022/01/17 12:30:46;;;;;;;3.25;0.65;;;;;;;3.00;55.03;100728.50;10167954;29;20059;-73
2022/01/17 12:35:46;;;;;;;3.35;0.80;;;;;;;2.50;55.38;100647.19;10150998;29;20437;-74
2022/01/17 12:40:47;;;;;;;5.35;0.80;;;;;;;2.89;55.44;100720.56;10149906;29;20055;-70
2022/01/17 12:45:55;;;;;;;2.90;0.70;;;;;;;2.13;54.99;100598.31;10132581;29;20509;-72
2022/01/17 12:50:58;;;;;;;1.50;0.65;;;;;;;2.70;55.41;100697.41;10137565;29;20087;-71
2022/01/17 12:56:03;;;;;;;4.72;0.80;;;;;;;0.99;55.97;100448.19;10160723;29;20501;-72
2022/01/17 13:01:12;;;;;;;6.78;1.33;;;;;;;2.11;55.36;100684.91;10167866;29;20055;-71
2022/01/17 13:06:18;;;;;;;26.25;1.58;;;;;;;2.54;56.16;100783.34;10166617;29;20044;-72
2022/01/17 13:11:22;;;;;;;7.90;0.82;;;;;;;1.18;55.64;100515.81;10167963;29;20046;-71
2022/01/17 13:16:23;;;;;;;10.73;1.30;;;;;;;2.20;56.00;100646.72;10165304;29;20087;-72
2022/01/17 13:21:25;;;;;;;2.05;0.80;;;;;;;1.18;56.29;100480.00;10164587;29;20055;-72
2022/01/17 13:26:33;;;;;;;3.08;0.80;;;;;;;1.65;56.65;100583.28;10160341;29;20043;-72
2022/01/17 13:31:34;;;;;;;3.42;1.00;;;;;;;1.52;56.84;100593.72;10164557;29;20047;-71
2022/01/17 13:36:37;;;;;;;2.58;0.80;;;;;;;2.26;57.21;100720.53;10165175;29;20044;-72
2022/01/17 13:41:44;;;;;;;3.15;0.93;;;;;;;2.23;57.05;100705.03;10166776;29;20583;-71
2022/01/17 13:47:07;;;;;;;2.30;0.88;;;;;;;1.04;56.86;100499.25;10163109;29;20056;-72
2022/01/17 13:52:09;;;;;;;2.90;1.13;;;;;;;1.19;56.42;100531.41;10167216;29;20052;-72
2022/01/17 13:57:15;;;;;;;5.65;1.50;;;;;;;2.02;56.89;100670.63;10166227;29;20052;-72
2022/01/17 14:02:17;;;;;;;3.28;1.10;;;;;;;1.07;57.78;100540.06;10154422;29;20056;-72
2022/01/17 14:07:22;;;;;;;9.45;1.40;;;;;;;1.39;58.94;100590.25;10166289;29;20052;-73
2022/01/17 14:12:24;;;;;;;6.35;1.23;;;;;;;1.44;58.69;100613.53;10166669;29;20504;-72
2022/01/17 14:17:30;;;;;;;3.40;1.23;;;;;;;1.43;59.64;100630.16;10165549;29;20079;-72
2022/01/17 14:22:31;;;;;;;4.43;0.70;;;;;;;1.01;60.00;100554.41;10165197;29;20059;-72
2022/01/17 14:27:32;;;;;;;4.30;1.20;;;;;;;1.08;60.07;100588.84;10169746;29;20043;-72
2022/01/17 14:32:33;;;;;;;3.03;0.80;;;;;;;1.13;61.20;100603.28;10176046;29;20509;-72
2022/01/17 14:37:34;;;;;;;1.95;0.98;;;;;;;1.26;61.18;100615.59;10173519;29;20048;-72
2022/01/17 14:42:40;;;;;;;3.65;1.10;;;;;;;1.30;61.88;100638.81;10176076;29;20051;-73
2022/01/17 14:47:47;;;;;;;3.58;1.52;;;;;;;0.52;62.81;100504.50;10176255;29;20063;-73
2022/01/17 14:52:48;;;;;;;2.67;1.05;;;;;;;1.25;62.89;100640.06;10173795;29;20386;-72
2022/01/17 15:08:10;;;;;;;3.65;1.25;;;;;;;0.89;63.87;100569.13;10173899;29;20066;-73
2022/01/17 15:13:11;;;;;;;5.43;1.15;;;;;;;0.88;64.49;100583.13;10169692;29;20472;-72
2022/01/17 15:18:15;;;;;;;3.05;0.90;;;;;;;0.97;65.12;100596.56;10173914;29;20047;-72
2022/01/17 15:23:20;;;;;;;2.42;0.90;;;;;;;1.09;65.00;100603.59;10175223;29;20048;-73
2022/01/17 15:28:21;;;;;;;1.83;0.80;;;;;;;0.81;64.81;100566.19;10161007;29;20076;-73
2022/01/17 15:33:25;;;;;;;4.35;0.88;;;;;;;1.03;64.94;100591.75;10135773;29;20080;-72
2022/01/17 15:38:26;;;;;;;2.38;0.85;;;;;;;0.87;65.15;100591.94;10135243;29;20127;-72
2022/01/17 15:43:27;;;;;;;2.92;0.95;;;;;;;0.72;64.90;100543.25;10135667;29;20045;-73
2022/01/17 15:48:28;;;;;;;2.88;1.05;;;;;;;0.64;65.18;100538.50;10134512;29;20116;-70
2022/01/17 15:53:35;;;;;;;2.63;0.95;;;;;;;0.51;65.02;100510.63;10138741;29;20802;-75
2022/01/17 15:58:36;;;;;;;2.53;1.15;;;;;;;-0.05;64.97;100411.47;10131094;29;20048;-70
2022/01/17 16:03:37;;;;;;;2.40;1.00;;;;;;;0.42;64.64;100484.19;10158081;29;20040;-72
2022/01/17 16:08:39;;;;;;;1.67;0.90;;;;;;;1.02;64.11;100574.41;10175408;29;20143;-71
2022/01/17 16:13:40;;;;;;;2.15;0.90;;;;;;;0.59;63.89;100477.00;10174869;29;20040;-71
2022/01/17 16:18:42;;;;;;;1.83;0.88;;;;;;;0.71;64.40;100485.81;10174542;29;20055;-72
2022/01/17 16:23:43;;;;;;;3.90;1.25;;;;;;;0.97;64.87;100541.63;10174357;29;20633;-72
2022/01/17 16:28:44;;;;;;;2.22;0.90;;;;;;;0.77;64.60;100525.47;10167396;29;20045;-71
2022/01/17 16:33:47;;;;;;;2.40;0.95;;;;;;;0.17;65.16;100405.69;10150273;29;20057;-71
2022/01/17 16:38:48;;;;;;;3.00;1.30;;;;;;;-0.65;64.68;100269.16;10143836;29;20051;-72
2022/01/17 16:43:49;;;;;;;4.82;1.17;;;;;;;0.67;65.81;100522.63;10151548;29;20524;-73
2022/01/17 16:48:51;;;;;;;3.33;1.20;;;;;;;-0.24;65.93;100404.81;10146555;29;20079;-73
2022/01/17 16:53:52;;;;;;;2.50;1.23;;;;;;;0.44;65.50;100513.66;10170364;29;20144;-73
2022/01/17 16:58:53;;;;;;;2.75;1.30;;;;;;;0.14;65.17;100466.81;10166653;29;20151;-71
2022/01/17 17:03:54;;;;;;;3.28;1.17;;;;;;;0.45;65.27;100509.28;10173194;29;20457;-72
2022/01/17 17:08:54;;;;;;;3.80;1.13;;;;;;;0.27;65.11;100476.47;10172459;29;20050;-73
2022/01/17 17:13:55;;;;;;;8.50;1.50;;;;;;;-0.38;64.38;100364.88;10172517;29;20048;-74
2022/01/17 17:18:56;;;;;;;2.85;1.50;;;;;;;-0.05;64.67;100441.03;10173230;29;20040;-73
2022/01/17 17:23:57;;;;;;;6.00;1.50;;;;;;;-0.16;64.40;100416.53;10173798;29;20044;-71
2022/01/17 17:28:58;;;;;;;2.97;1.38;;;;;;;-0.27;63.18;100378.91;10172637;29;20036;-70
2022/01/17 17:33:58;;;;;;;2.90;1.70;;;;;;;-0.56;62.99;100346.00;10173106;29;20048;-72
2022/01/17 17:39:00;;;;;;;3.25;1.50;;;;;;;-0.38;62.78;100375.31;10172023;29;20044;-71
2022/01/17 17:44:04;;;;;;;2.53;1.33;;;;;;;0.27;62.53;100479.09;10172440;29;20048;-71
2022/01/17 17:49:07;;;;;;;2.58;1.35;;;;;;;-0.66;62.35;100339.66;10171774;29;20088;-73
2022/01/17 17:54:08;;;;;;;3.10;1.35;;;;;;;0.01;63.24;100480.78;10171885;29;20072;-71
2022/01/17 17:59:09;;;;;;;2.95;1.35;;;;;;;-0.23;62.47;100437.00;10171818;29;20132;-73
2022/01/17 18:04:10;;;;;;;5.43;1.70;;;;;;;-0.16;63.20;100459.16;10171422;29;20584;-73
2022/01/17 18:09:11;;;;;;;3.05;1.50;;;;;;;-1.54;62.93;100232.97;10177095;29;20489;-73
2022/01/17 18:14:12;;;;;;;4.90;1.65;;;;;;;-0.12;62.97;100471.09;10177761;29;20058;-73
2022/01/17 18:19:13;;;;;;;5.60;1.90;;;;;;;-0.29;62.62;100421.72;10176039;29;20051;-73
2022/01/17 18:24:14;;;;;;;3.35;1.75;;;;;;;-0.87;62.73;100360.09;10177219;29;20095;-74
2022/01/17 18:29:14;;;;;;;3.42;2.00;;;;;;;-0.42;63.85;100447.72;10176192;29;20044;-73
2022/01/17 18:34:16;;;;;;;2.25;1.27;;;;;;;-0.57;63.81;100443.44;10168661;29;20045;-73
2022/01/17 18:39:23;;;;;;;3.08;1.60;;;;;;;-0.95;64.35;100397.91;10165741;29;20048;-73
2022/01/17 18:44:24;;;;;;;4.00;2.00;;;;;;;-0.95;64.76;100420.56;10175242;29;20206;-74
2022/01/17 18:49:31;;;;;;;3.78;1.83;;;;;;;-1.01;64.94;100418.31;10175745;29;20619;-73
2022/01/17 18:54:32;;;;;;;4.47;1.75;;;;;;;-1.24;65.08;100402.28;10177658;29;20051;-73
2022/01/17 18:59:33;;;;;;;4.03;1.98;;;;;;;-1.65;65.40;100331.75;10176349;29;20409;-72
2022/01/17 19:04:35;;;;;;;3.78;2.03;;;;;;;-1.26;65.53;100388.47;10177200;29;20443;-72
2022/01/17 19:09:36;;;;;;;4.50;1.73;;;;;;;-1.45;65.61;100367.06;10178322;29;20504;-72
2022/01/17 19:14:38;;;;;;;4.13;1.90;;;;;;;-1.39;65.41;100377.13;10175232;29;20064;-71
2022/01/17 19:24:59;;;;;;;3.30;1.70;;;;;;;-2.26;66.20;100254.66;10137571;29;20040;-72
2022/01/17 19:30:00;;;;;;;6.47;2.08;;;;;;;-3.01;66.24;100124.56;10138128;29;20591;-72
2022/01/17 19:35:01;;;;;;;2.97;1.60;;;;;;;-2.23;66.49;100260.50;10137314;29;20450;-72
2022/01/17 19:40:03;;;;;;;4.95;1.95;;;;;;;-1.99;66.61;100307.69;10137096;29;20071;-71
2022/01/17 19:45:05;;;;;;;4.15;1.88;;;;;;;-2.62;66.77;100204.63;10137339;29;20041;-72
2022/01/17 19:50:07;;;;;;;4.57;1.73;;;;;;;-2.28;66.97;100256.50;10137036;29;20057;-72
2022/01/17 19:55:09;;;;;;;5.55;2.08;;;;;;;-2.00;67.54;100303.44;10136691;29;20516;-72
2022/01/17 20:00:10;;;;;;;3.80;1.90;;;;;;;-2.00;67.19;100292.19;10136627;29;20098;-71
2022/01/17 20:05:11;;;;;;;4.03;1.98;;;;;;;-2.22;67.29;100258.72;10136709;29;20087;-72
2022/01/17 20:10:12;;;;;;;3.95;1.90;;;;;;;-3.61;67.50;100038.75;10135808;29;20520;-71
2022/01/17 20:15:13;;;;;;;9.82;2.50;;;;;;;-2.00;66.88;100292.19;10135672;29;20045;-71
2022/01/17 20:20:14;;;;;;;4.25;2.30;;;;;;;-2.82;67.49;100147.72;10134909;29;20055;-73
2022/01/17 20:25:16;;;;;;;4.43;2.20;;;;;;;-2.16;67.70;100241.00;10134215;29;20047;-71
2022/01/17 20:30:17;;;;;;;7.90;2.55;;;;;;;-2.07;67.59;100260.44;10135157;29;20497;-72
2022/01/17 20:35:19;;;;;;;6.15;2.50;;;;;;;-2.30;67.78;100238.38;10135141;29;20080;-71
2022/01/17 20:40:20;;;;;;;4.85;2.30;;;;;;;-3.16;67.16;100089.03;10134783;29;20049;-71
2022/01/17 20:45:22;;;;;;;4.53;2.50;;;;;;;-2.27;67.90;100253.81;10135206;29;20497;-71
2022/01/17 20:50:23;;;;;;;6.03;2.45;;;;;;;-2.27;67.59;100250.34;10134803;29;20064;-71
2022/01/17 20:55:24;;;;;;;5.60;2.47;;;;;;;-2.49;67.99;100230.78;10133917;29;20112;-71
2022/01/17 21:00:26;;;;;;;5.10;2.75;;;;;;;-2.36;67.68;100241.34;10133402;29;20100;-71
2022/01/17 21:05:26;;;;;;;6.07;3.00;;;;;;;-2.63;67.67;100196.91;10134494;29;20045;-72
2022/01/17 21:10:29;;;;;;;7.53;2.42;;;;;;;-2.44;67.85;100220.94;10134748;29;20401;-71
2022/01/17 21:15:30;;;;;;;5.15;2.67;;;;;;;-2.49;68.22;100227.34;10133365;29;20075;-71
2022/01/17 21:20:31;;;;;;;4.70;2.60;;;;;;;-2.86;68.37;100167.03;10133099;29;20559;-71
2022/01/17 21:25:32;;;;;;;5.38;2.63;;;;;;;-4.25;68.40;99941.94;10133180;29;20074;-71
2022/01/17 21:30:33;;;;;;;5.30;2.80;;;;;;;-4.66;68.65;99877.63;10132968;29;20056;-71
2022/01/17 21:35:35;;;;;;;5.45;2.60;;;;;;;-2.62;68.67;100219.41;10132995;29;20096;-71
2022/01/17 21:40:36;;;;;;;6.15;2.72;;;;;;;-2.61;68.65;100210.66;10137858;29;20049;-71
2022/01/17 21:45:38;;;;;;;6.32;2.78;;;;;;;-2.76;68.29;100179.41;10141224;29;20482;-72
2022/01/17 21:50:40;;;;;;;6.00;2.65;;;;;;;-2.54;68.47;100199.00;10142057;29;20497;-71
2022/01/17 21:55:40;;;;;;;3.78;2.25;;;;;;;-2.81;68.47;100147.66;10140929;29;20059;-72
2022/01/17 22:00:42;;;;;;;4.45;2.50;;;;;;;-4.26;67.80;99916.94;10141487;29;20051;-71
2022/01/17 22:05:43;;;;;;;5.90;2.40;;;;;;;-2.62;68.05;100190.78;10140182;29;20060;-72
2022/01/17 22:10:44;;;;;;;5.20;2.63;;;;;;;-2.64;67.57;100182.25;10140968;29;20061;-72
2022/01/17 22:15:45;;;;;;;5.45;2.40;;;;;;;-3.50;67.99;100044.16;10140438;29;20040;-71
2022/01/17 22:20:46;;;;;;;7.80;2.90;;;;;;;-3.38;68.46;100069.47;10139388;29;20046;-71
2022/01/17 22:25:47;;;;;;;7.22;2.80;;;;;;;-2.70;67.99;100185.19;10139939;29;20044;-72
2022/01/17 22:30:48;;;;;;;4.82;2.90;;;;;;;-2.74;68.00;100184.53;10139132;29;20108;-72
2022/01/17 22:35:49;;;;;;;6.32;2.95;;;;;;;-2.78;68.40;100176.06;10138290;29;20450;-71
2022/01/17 22:40:49;;;;;;;6.57;2.35;;;;;;;-3.09;68.24;100129.34;10138797;29;20044;-71
2022/01/17 22:45:50;;;;;;;5.90;2.78;;;;;;;-2.92;68.77;100162.19;10138471;29;20447;-71
2022/01/17 22:50:51;;;;;;;7.70;3.05;;;;;;;-3.31;68.67;100106.34;10139433;29;20061;-72
2022/01/17 22:55:52;;;;;;;4.93;2.72;;;;;;;-3.34;68.70;100085.72;10138694;29;20046;-71
2022/01/17 23:00:53;;;;;;;8.10;3.42;;;;;;;-3.85;68.24;99995.06;10138021;29;20108;-71
2022/01/17 23:05:54;;;;;;;10.65;3.10;;;;;;;-3.15;68.60;100106.31;10138462;29;20049;-72
2022/01/17 23:10:55;;;;;;;6.55;3.47;;;;;;;-3.09;68.49;100160.50;10136674;29;20040;-72
2022/01/17 23:15:57;;;;;;;7.40;3.08;;;;;;;-3.03;69.17;100134.19;10138189;29;20047;-71
2022/01/17 23:20:59;;;;;;;7.72;3.10;;;;;;;-3.61;69.09;100051.75;10137713;29;20052;-72
2022/01/17 23:26:00;;;;;;;6.70;3.08;;;;;;;-3.30;68.83;100121.81;10137146;29;20044;-71
2022/01/17 23:36:34;;;;;;;4.70;2.40;;;;;;;-3.00;69.23;100145.25;10135761;29;20067;-71
2022/01/17 23:41:36;;;;;;;7.88;3.03;;;;;;;-3.32;68.55;100069.13;10137219;29;20425;-72
2022/01/17 23:46:40;;;;;;;5.75;3.22;;;;;;;-2.92;68.47;100116.22;10137109;29;20072;-72
2022/01/17 23:51:42;;;;;;;6.72;3.28;;;;;;;-2.91;68.14;100112.69;10137598;29;20056;-71